createdAt,value
2018-10-12T00:00:46.071Z,61.58
2018-10-12T00:02:52.275Z,62.31
2018-10-12T00:04:58.367Z,62.45
2018-10-12T00:07:04.543Z,61.82
2018-10-12T00:09:11.486Z,61.65
2018-10-12T00:11:17.521Z,61.84
2018-10-12T00:13:23.610Z,62.25
2018-10-12T00:15:29.729Z,62.54
2018-10-12T00:17:35.820Z,62.00
2018-10-12T00:20:05.501Z,62.40
2018-10-12T00:22:33.596Z,62.76
2018-10-12T00:24:39.677Z,62.87
2018-10-12T00:26:45.805Z,62.55
2018-10-12T00:28:51.925Z,62.92
2018-10-12T00:30:58.059Z,61.95
2018-10-12T00:33:04.156Z,62.27
2018-10-12T00:35:10.385Z,62.23
2018-10-12T00:37:16.456Z,62.37
2018-10-12T00:39:22.536Z,62.47
2018-10-12T00:41:28.685Z,62.36
2018-10-12T00:43:34.841Z,62.82
2018-10-12T00:45:40.940Z,63.06
2018-10-12T00:47:51.527Z,62.25
2018-10-12T00:49:57.634Z,62.78
2018-10-12T00:52:03.840Z,62.63
2018-10-12T00:54:09.892Z,62.34
2018-10-12T00:56:16.016Z,63.05
2018-10-12T00:58:22.207Z,62.94
2018-10-12T01:00:28.295Z,63.19
2018-10-12T01:02:34.424Z,63.16
2018-10-12T01:04:40.540Z,63.32
2018-10-12T01:06:46.755Z,62.55
2018-10-12T01:08:52.789Z,62.60
2018-10-12T01:10:58.943Z,62.40
2018-10-12T01:13:05.132Z,62.72
2018-10-12T01:15:11.227Z,62.60
2018-10-12T01:17:17.372Z,62.81
2018-10-12T01:19:58.551Z,63.77
2018-10-12T01:22:27.857Z,62.74
2018-10-12T01:24:34.014Z,63.29
2018-10-12T01:26:40.985Z,63.24
2018-10-12T01:28:51.079Z,63.05
2018-10-12T01:30:57.231Z,63.15
2018-10-12T01:33:04.076Z,63.94
2018-10-12T01:35:10.165Z,63.34
2018-10-12T01:37:16.497Z,63.88
2018-10-12T01:39:22.611Z,63.49
2018-10-12T01:41:28.757Z,63.99
2018-10-12T01:43:34.868Z,63.84
2018-10-12T01:45:40.995Z,64.04
2018-10-12T01:47:47.124Z,63.50
2018-10-12T01:49:53.206Z,63.94
2018-10-12T01:51:59.396Z,63.95
2018-10-12T01:54:05.452Z,64.01
2018-10-12T01:56:11.537Z,63.09
2018-10-12T01:58:17.691Z,63.03
2018-10-12T02:00:23.894Z,63.65
2018-10-12T02:02:30.000Z,63.94
2018-10-12T02:04:36.124Z,63.76
2018-10-12T02:06:42.292Z,63.88
2018-10-12T02:08:48.384Z,63.77
2018-10-12T02:10:54.459Z,63.15
2018-10-12T02:13:00.596Z,63.31
2018-10-12T02:15:07.262Z,63.36
2018-10-12T02:17:13.351Z,63.50
2018-10-12T02:19:42.368Z,63.36
2018-10-12T02:22:10.569Z,63.13
2018-10-12T02:24:16.781Z,63.44
2018-10-12T02:26:22.875Z,63.86
2018-10-12T02:28:28.992Z,63.19
2018-10-12T02:30:35.176Z,63.14
2018-10-12T02:32:41.236Z,63.95
2018-10-12T02:34:47.288Z,63.69
2018-10-12T02:36:53.473Z,63.89
2018-10-12T02:38:59.712Z,63.86
2018-10-12T02:41:05.985Z,63.44
2018-10-12T02:43:12.719Z,63.60
2018-10-12T02:45:19.652Z,63.90
2018-10-12T02:47:25.739Z,64.00
2018-10-12T02:49:31.816Z,63.38
2018-10-12T02:51:38.200Z,63.98
2018-10-12T02:53:44.311Z,63.34
2018-10-12T02:55:50.414Z,64.19
2018-10-12T02:57:56.531Z,63.79
2018-10-12T03:00:02.769Z,63.64
2018-10-12T03:02:08.898Z,64.14
2018-10-12T03:04:14.976Z,64.34
2018-10-12T03:06:21.111Z,63.87
2018-10-12T03:08:27.159Z,63.95
2018-10-12T03:10:33.434Z,63.91
2018-10-12T03:12:39.615Z,63.79
2018-10-12T03:14:45.686Z,64.78
2018-10-12T03:16:51.819Z,63.92
2018-10-12T03:19:20.398Z,64.65
2018-10-12T03:21:49.291Z,63.79
2018-10-12T03:23:55.398Z,63.96
2018-10-12T03:26:01.492Z,63.92
2018-10-12T03:28:22.938Z,64.43
2018-10-12T03:30:29.073Z,64.26
2018-10-12T03:32:35.160Z,64.66
2018-10-12T03:34:41.446Z,63.78
2018-10-12T03:36:47.548Z,64.22
2018-10-12T03:38:53.621Z,64.03
2018-10-12T03:40:59.774Z,64.46
2018-10-12T03:43:05.893Z,64.11
2018-10-12T03:45:12.032Z,64.68
2018-10-12T03:47:20.185Z,64.81
2018-10-12T03:49:26.438Z,63.91
2018-10-12T03:51:32.484Z,64.09
2018-10-12T03:53:38.669Z,65.17
2018-10-12T03:55:44.765Z,64.40
2018-10-12T03:57:51.098Z,64.78
2018-10-12T03:59:57.215Z,64.10
2018-10-12T04:02:03.351Z,64.25
2018-10-12T04:04:09.598Z,64.11
2018-10-12T04:06:15.724Z,64.13
2018-10-12T04:08:21.843Z,64.80
2018-10-12T04:10:28.031Z,64.64
2018-10-12T04:12:34.255Z,64.58
2018-10-12T04:14:40.372Z,64.41
2018-10-12T04:16:46.450Z,64.82
2018-10-12T04:18:52.603Z,63.95
2018-10-12T04:21:21.835Z,64.05
2018-10-12T04:23:50.656Z,64.33
2018-10-12T04:25:56.804Z,64.25
2018-10-12T04:28:03.519Z,64.66
2018-10-12T04:30:10.056Z,63.93
2018-10-12T04:32:16.913Z,64.64
2018-10-12T04:34:23.109Z,64.95
2018-10-12T04:36:29.316Z,64.35
2018-10-12T04:40:56.312Z,64.12
2018-10-12T04:43:02.466Z,63.88
2018-10-12T04:45:08.598Z,64.17
2018-10-12T04:47:14.939Z,64.28
2018-10-12T04:49:21.067Z,63.96
2018-10-12T04:51:32.784Z,64.77
2018-10-12T04:53:38.990Z,64.00
2018-10-12T04:55:45.299Z,64.30
2018-10-12T04:57:51.414Z,64.25
2018-10-12T04:59:57.494Z,64.57
2018-10-12T05:02:03.878Z,64.39
2018-10-12T05:04:10.201Z,64.11
2018-10-12T05:06:16.273Z,64.21
2018-10-12T05:08:22.425Z,64.02
2018-10-12T05:10:28.527Z,63.88
2018-10-12T05:12:34.659Z,63.93
2018-10-12T05:14:40.782Z,64.01
2018-10-12T05:16:46.937Z,64.53
2018-10-12T05:18:53.076Z,64.25
2018-10-12T05:21:34.059Z,64.93
2018-10-12T05:23:59.296Z,64.58
2018-10-12T05:26:05.468Z,63.80
2018-10-12T05:28:11.535Z,64.19
2018-10-12T05:30:17.836Z,64.76
2018-10-12T05:32:23.955Z,64.41
2018-10-12T05:34:30.035Z,64.42
2018-10-12T05:36:36.311Z,63.95
2018-10-12T05:38:42.419Z,64.45
2018-10-12T05:40:48.665Z,64.70
2018-10-12T05:42:55.019Z,63.92
2018-10-12T05:45:01.071Z,64.08
2018-10-12T05:47:07.218Z,64.67
2018-10-12T05:49:30.346Z,63.94
2018-10-12T05:51:36.571Z,64.76
2018-10-12T05:53:43.025Z,64.54
2018-10-12T05:55:49.258Z,64.37
2018-10-12T05:57:55.308Z,64.37
2018-10-12T06:00:01.646Z,64.57
2018-10-12T06:02:07.847Z,64.86
2018-10-12T06:04:14.005Z,64.83
2018-10-12T06:06:20.526Z,64.99
2018-10-12T06:08:26.658Z,64.33
2018-10-12T06:10:32.796Z,65.28
2018-10-12T06:12:38.853Z,64.50
2018-10-12T06:14:44.995Z,64.60
2018-10-12T06:16:51.732Z,65.00
2018-10-12T06:18:58.529Z,65.32
2018-10-12T06:21:04.852Z,64.86
2018-10-12T06:23:10.946Z,64.81
2018-10-12T06:25:17.152Z,65.18
2018-10-12T06:27:23.328Z,65.23
2018-10-12T06:29:29.384Z,65.37
2018-10-12T06:31:35.480Z,65.47
2018-10-12T06:33:41.560Z,65.16
2018-10-12T06:35:47.651Z,65.44
2018-10-12T06:37:53.920Z,65.31
2018-10-12T06:40:00.035Z,64.85
2018-10-12T06:42:06.149Z,64.84
2018-10-12T06:44:12.221Z,65.13
2018-10-12T06:46:18.343Z,65.45
2018-10-12T06:48:24.410Z,64.95
2018-10-12T06:50:30.556Z,65.01
2018-10-12T06:52:36.915Z,64.98
2018-10-12T06:54:43.226Z,64.82
2018-10-12T06:56:49.352Z,65.33
2018-10-12T06:58:55.441Z,64.97
2018-10-12T07:01:01.659Z,65.56
2018-10-12T07:03:07.806Z,64.85
2018-10-12T07:05:14.010Z,65.00
2018-10-12T07:07:20.128Z,65.21
2018-10-12T07:09:26.304Z,65.35
2018-10-12T07:11:32.517Z,65.27
2018-10-12T07:13:38.680Z,65.80
2018-10-12T07:15:44.816Z,65.72
2018-10-12T07:17:50.937Z,65.09
2018-10-12T07:19:57.079Z,64.75
2018-10-12T07:22:03.676Z,65.33
2018-10-12T07:24:09.956Z,64.59
2018-10-12T07:26:16.097Z,65.34
2018-10-12T07:28:22.316Z,64.55
2018-10-12T07:30:28.423Z,65.08
2018-10-12T07:32:34.608Z,64.46
2018-10-12T07:34:40.909Z,64.32
2018-10-12T07:36:47.187Z,64.73
2018-10-12T07:38:53.316Z,64.96
2018-10-12T07:40:59.464Z,65.32
2018-10-12T07:43:05.640Z,65.17
2018-10-12T07:45:11.788Z,64.35
2018-10-12T07:47:18.030Z,65.21
2018-10-12T07:49:24.103Z,65.13
2018-10-12T07:51:30.188Z,65.47
2018-10-12T07:53:36.390Z,64.79
2018-10-12T07:55:42.712Z,65.54
2018-10-12T07:57:48.824Z,65.71
2018-10-12T07:59:54.957Z,64.92
2018-10-12T08:02:01.173Z,65.51
2018-10-12T08:04:07.309Z,64.66
2018-10-12T08:06:13.555Z,64.75
2018-10-12T08:08:19.828Z,64.79
2018-10-12T08:10:25.947Z,65.00
2018-10-12T08:12:32.113Z,64.55
2018-10-12T08:14:38.413Z,64.74
2018-10-12T08:16:44.566Z,65.20
2018-10-12T08:18:50.666Z,64.97
2018-10-12T08:20:56.828Z,65.20
2018-10-12T08:23:03.166Z,64.96
2018-10-12T08:25:09.332Z,65.13
2018-10-12T08:27:15.526Z,64.32
2018-10-12T08:29:25.445Z,64.65
2018-10-12T08:31:31.577Z,64.77
2018-10-12T08:33:37.876Z,63.94
2018-10-12T08:35:44.027Z,64.57
2018-10-12T08:37:50.136Z,64.26
2018-10-12T08:39:56.304Z,63.79
2018-10-12T08:42:02.662Z,63.56
2018-10-12T08:44:08.906Z,64.05
2018-10-12T08:46:15.063Z,64.05
2018-10-12T08:48:21.152Z,64.05
2018-10-12T08:50:27.360Z,63.66
2018-10-12T08:52:33.513Z,63.94
2018-10-12T08:54:39.600Z,63.44
2018-10-12T08:56:45.671Z,63.36
2018-10-12T08:58:51.751Z,63.67
2018-10-12T09:00:57.828Z,63.29
2018-10-12T09:03:04.134Z,63.45
2018-10-12T09:05:10.161Z,63.12
2018-10-12T09:07:16.310Z,62.96
2018-10-12T09:09:22.365Z,63.09
2018-10-12T09:11:29.058Z,62.15
2018-10-12T09:13:35.128Z,62.27
2018-10-12T09:15:42.295Z,62.17
2018-10-12T09:17:48.474Z,62.76
2018-10-12T09:19:56.136Z,62.47
2018-10-12T09:22:02.326Z,61.65
2018-10-12T09:24:08.645Z,62.28
2018-10-12T09:26:14.832Z,62.16
2018-10-12T09:28:20.952Z,61.21
2018-10-12T09:30:27.154Z,61.90
2018-10-12T09:32:33.303Z,61.07
2018-10-12T09:34:39.384Z,61.38
2018-10-12T09:36:45.663Z,61.60
2018-10-12T09:38:52.209Z,61.63
2018-10-12T09:40:58.491Z,61.48
2018-10-12T09:43:04.566Z,61.28
2018-10-12T09:45:10.995Z,60.74
2018-10-12T09:47:17.140Z,60.46
2018-10-12T09:49:23.302Z,60.78
2018-10-12T09:51:29.492Z,61.03
2018-10-12T09:53:36.167Z,60.38
2018-10-12T09:55:42.311Z,60.10
2018-10-12T09:57:48.531Z,59.81
2018-10-12T09:59:55.056Z,59.75
2018-10-12T10:02:06.425Z,60.26
2018-10-12T10:04:18.339Z,60.40
2018-10-12T10:06:24.475Z,59.92
2018-10-12T10:08:30.641Z,59.19
2018-10-12T10:10:36.681Z,59.30
2018-10-12T10:12:42.802Z,59.51
2018-10-12T10:14:49.588Z,58.95
2018-10-12T10:16:55.662Z,59.19
2018-10-12T10:19:01.788Z,58.69
2018-10-12T10:21:07.938Z,58.49
2018-10-12T10:23:14.069Z,59.17
2018-10-12T10:25:20.282Z,57.97
2018-10-12T10:27:26.447Z,58.85
2018-10-12T10:29:32.548Z,58.76
2018-10-12T10:31:38.686Z,57.78
2018-10-12T10:33:44.766Z,58.44
2018-10-12T10:35:50.928Z,58.30
2018-10-12T10:37:57.157Z,57.83
2018-10-12T10:40:03.303Z,58.23
2018-10-12T10:42:09.512Z,58.35
2018-10-12T10:44:15.607Z,58.00
2018-10-12T10:46:21.825Z,57.14
2018-10-12T10:48:27.875Z,56.71
2018-10-12T10:50:33.964Z,57.46
2018-10-12T10:52:40.180Z,57.07
2018-10-12T10:54:46.291Z,57.33
2018-10-12T10:56:52.640Z,57.10
2018-10-12T10:58:58.775Z,56.89
2018-10-12T11:01:05.065Z,56.39
2018-10-12T11:03:11.138Z,56.52
2018-10-12T11:05:17.560Z,56.49
2018-10-12T11:07:23.679Z,55.58
2018-10-12T11:09:29.780Z,56.37
2018-10-12T11:11:36.045Z,55.34
2018-10-12T11:13:42.151Z,55.24
2018-10-12T11:15:48.300Z,55.89
2018-10-12T11:17:54.368Z,54.83
2018-10-12T11:20:00.452Z,54.68
2018-10-12T11:22:06.871Z,54.45
2018-10-12T11:24:12.971Z,55.29
2018-10-12T11:26:19.327Z,54.88
2018-10-12T11:28:25.473Z,54.93
2018-10-12T11:30:32.143Z,54.76
2018-10-12T11:32:38.314Z,54.20
2018-10-12T11:34:44.468Z,54.58
2018-10-12T11:36:50.606Z,54.22
2018-10-12T11:38:56.995Z,53.30
2018-10-12T11:41:03.120Z,53.04
2018-10-12T11:43:30.683Z,53.39
2018-10-12T11:45:36.919Z,53.53
2018-10-12T11:47:43.141Z,53.11
2018-10-12T11:49:49.224Z,53.23
2018-10-12T11:51:55.389Z,53.02
2018-10-12T11:54:01.684Z,52.57
2018-10-12T11:56:07.832Z,52.32
2018-10-12T11:58:13.974Z,52.41
2018-10-12T12:00:20.062Z,52.30
2018-10-12T12:02:26.311Z,52.41
2018-10-12T12:04:32.483Z,51.19
2018-10-12T12:06:38.602Z,51.63
2018-10-12T12:08:44.763Z,51.26
2018-10-12T12:10:50.872Z,50.59
2018-10-12T12:12:57.101Z,50.38
2018-10-12T12:15:03.294Z,50.71
2018-10-12T12:17:09.392Z,50.25
2018-10-12T12:19:15.752Z,50.20
2018-10-12T12:21:22.197Z,50.22
2018-10-12T12:23:28.331Z,49.90
2018-10-12T12:25:34.487Z,49.65
2018-10-12T12:27:40.760Z,50.15
2018-10-12T12:29:46.934Z,49.75
2018-10-12T12:31:53.069Z,49.85
2018-10-12T12:33:59.179Z,49.00
2018-10-12T12:36:06.600Z,48.90
2018-10-12T12:38:12.480Z,48.83
2018-10-12T12:40:18.581Z,49.72
2018-10-12T12:42:24.815Z,48.59
2018-10-12T12:44:31.282Z,48.64
2018-10-12T12:46:37.451Z,48.41
2018-10-12T12:48:43.855Z,48.06
2018-10-12T12:50:49.682Z,48.27
2018-10-12T12:52:55.908Z,48.99
2018-10-12T12:55:02.047Z,47.75
2018-10-12T12:57:08.440Z,48.17
2018-10-12T12:59:14.656Z,48.35
2018-10-12T13:01:20.917Z,47.20
2018-10-12T13:03:27.047Z,47.10
2018-10-12T13:05:33.161Z,47.94
2018-10-12T13:07:39.334Z,47.73
2018-10-12T13:09:45.416Z,47.73
2018-10-12T13:11:51.525Z,46.27
2018-10-12T13:13:57.776Z,46.38
2018-10-12T13:16:03.966Z,46.74
2018-10-12T13:18:10.105Z,46.43
2018-10-12T13:20:16.218Z,46.47
2018-10-12T13:22:22.301Z,47.38
2018-10-12T13:24:28.504Z,47.31
2018-10-12T13:26:34.636Z,46.50
2018-10-12T13:28:40.837Z,47.19
2018-10-12T13:30:47.053Z,47.02
2018-10-12T13:32:53.182Z,46.67
2018-10-12T13:34:59.256Z,46.91
2018-10-12T13:37:05.500Z,46.02
2018-10-12T13:39:13.077Z,46.48
2018-10-12T13:41:19.149Z,46.20
2018-10-12T13:43:25.285Z,46.67
2018-10-12T13:45:31.494Z,45.60
2018-10-12T13:47:37.764Z,45.52
2018-10-12T13:49:43.934Z,45.17
2018-10-12T13:51:50.078Z,46.33
2018-10-12T13:53:56.249Z,45.33
2018-10-12T13:56:02.361Z,45.33
2018-10-12T13:58:08.490Z,45.46
2018-10-12T14:00:14.730Z,45.55
2018-10-12T14:02:21.112Z,45.95
2018-10-12T14:04:28.118Z,44.92
2018-10-12T14:06:34.390Z,45.23
2018-10-12T14:08:40.509Z,44.99
2018-10-12T14:10:46.623Z,44.98
2018-10-12T14:12:52.839Z,44.83
2018-10-12T14:14:58.962Z,44.50
2018-10-12T14:17:05.102Z,45.18
2018-10-12T14:19:11.729Z,44.43
2018-10-12T14:21:17.503Z,45.10
2018-10-12T14:23:23.824Z,45.57
2018-10-12T14:25:30.014Z,45.13
2018-10-12T14:27:36.173Z,45.06
2018-10-12T14:29:42.399Z,45.29
2018-10-12T14:31:48.589Z,44.52
2018-10-12T14:33:54.820Z,44.38
2018-10-12T14:36:00.972Z,44.34
2018-10-12T14:38:07.180Z,44.38
2018-10-12T14:40:13.534Z,44.35
2018-10-12T14:42:19.681Z,43.93
2018-10-12T14:44:25.906Z,44.30
2018-10-12T14:46:31.980Z,44.67
2018-10-12T14:48:38.114Z,45.02
2018-10-12T14:50:44.270Z,44.09
2018-10-12T14:52:50.452Z,43.76
2018-10-12T14:54:56.603Z,44.10
2018-10-12T14:57:02.762Z,44.57
2018-10-12T14:59:09.234Z,43.93
2018-10-12T15:01:15.313Z,44.63
2018-10-12T15:03:21.541Z,43.97
2018-10-12T15:05:27.718Z,44.30
2018-10-12T15:07:33.777Z,44.11
2018-10-12T15:09:40.859Z,44.57
2018-10-12T15:11:47.049Z,44.51
2018-10-12T15:13:53.280Z,43.84
2018-10-12T15:15:59.409Z,44.46
2018-10-12T15:18:05.530Z,44.17
2018-10-12T15:20:11.777Z,43.44
2018-10-12T15:22:18.183Z,44.55
2018-10-12T15:24:24.362Z,44.54
2018-10-12T15:26:30.553Z,43.48
2018-10-12T15:28:36.677Z,44.07
2018-10-12T15:30:42.925Z,44.54
2018-10-12T15:32:49.048Z,44.02
2018-10-12T15:34:55.144Z,43.12
2018-10-12T15:37:01.523Z,44.03
2018-10-12T15:39:08.026Z,43.32
2018-10-12T15:41:14.238Z,43.04
2018-10-12T15:43:20.576Z,43.18
2018-10-12T15:45:26.688Z,43.62
2018-10-12T15:47:32.835Z,43.57
2018-10-12T15:49:39.002Z,43.14
2018-10-12T15:51:45.089Z,43.97
2018-10-12T15:53:51.546Z,44.34
2018-10-12T15:55:57.768Z,44.22
2018-10-12T15:58:03.926Z,43.96
2018-10-12T16:00:10.184Z,43.89
2018-10-12T16:02:16.676Z,43.70
2018-10-12T16:04:22.901Z,44.62
2018-10-12T16:06:29.226Z,44.10
2018-10-12T16:08:35.405Z,44.83
2018-10-12T16:10:41.674Z,44.37
2018-10-12T16:12:48.060Z,44.99
2018-10-12T16:14:54.211Z,45.54
2018-10-12T16:17:00.999Z,44.75
2018-10-12T16:19:07.320Z,46.02
2018-10-12T16:21:13.474Z,45.36
2018-10-12T16:23:19.673Z,45.49
2018-10-12T16:26:10.665Z,45.23
2018-10-12T16:28:16.776Z,46.30
2018-10-12T16:30:23.017Z,45.98
2018-10-12T16:32:29.374Z,46.68
2018-10-12T16:34:35.491Z,45.86
2018-10-12T16:36:41.813Z,45.93
2018-10-12T16:38:48.018Z,46.57
2018-10-12T16:40:54.218Z,47.30
2018-10-12T16:43:00.458Z,47.25
2018-10-12T16:45:06.701Z,46.64
2018-10-12T16:47:12.821Z,46.72
2018-10-12T16:49:18.958Z,47.60
2018-10-12T16:51:25.248Z,47.57
2018-10-12T16:53:31.557Z,47.08
2018-10-12T16:55:37.801Z,47.01
2018-10-12T16:57:44.044Z,47.91
2018-10-12T16:59:50.187Z,47.56
2018-10-12T17:01:56.328Z,48.00
2018-10-12T17:04:02.683Z,47.27
2018-10-12T17:06:08.889Z,48.12
2018-10-12T17:08:15.200Z,48.36
2018-10-12T17:10:21.345Z,47.90
2018-10-12T17:12:27.673Z,48.93
2018-10-12T17:14:33.783Z,48.96
2018-10-12T17:16:40.000Z,48.93
2018-10-12T17:18:46.191Z,48.46
2018-10-12T17:20:52.399Z,49.40
2018-10-12T17:22:58.621Z,49.44
2018-10-12T17:25:04.895Z,48.70
2018-10-12T17:27:11.214Z,48.64
2018-10-12T17:29:17.495Z,49.40
2018-10-12T17:31:23.653Z,48.64
2018-10-12T17:33:30.818Z,48.73
2018-10-12T17:35:37.000Z,48.70
2018-10-12T17:37:43.146Z,48.86
2018-10-12T17:39:49.305Z,49.07
2018-10-12T17:41:55.522Z,49.13
2018-10-12T17:44:01.720Z,50.01
2018-10-12T17:46:08.081Z,50.19
2018-10-12T17:48:14.256Z,49.44
2018-10-12T17:50:20.486Z,50.45
2018-10-12T17:52:27.701Z,49.58
2018-10-12T17:54:34.137Z,49.55
2018-10-12T17:56:40.298Z,49.71
2018-10-12T17:58:46.482Z,49.89
2018-10-12T18:00:52.813Z,50.76
2018-10-12T18:02:59.155Z,50.73
2018-10-12T18:05:05.361Z,50.68
2018-10-12T18:07:11.887Z,49.87
2018-10-12T18:09:18.035Z,49.93
2018-10-12T18:11:24.340Z,50.02
2018-10-12T18:13:30.553Z,50.02
2018-10-12T18:15:36.738Z,50.46
2018-10-12T18:17:42.962Z,51.03
2018-10-12T18:19:49.232Z,51.75
2018-10-12T18:21:55.309Z,51.34
2018-10-12T18:24:01.719Z,51.13
2018-10-12T18:26:08.011Z,51.37
2018-10-12T18:28:14.827Z,51.77
2018-10-12T18:30:21.130Z,51.84
2018-10-12T18:32:27.389Z,52.44
2018-10-12T18:34:33.723Z,52.56
2018-10-12T18:36:39.947Z,52.21
2018-10-12T18:38:46.176Z,52.05
2018-10-12T18:40:59.552Z,52.67
2018-10-12T18:43:13.250Z,52.13
2018-10-12T18:45:27.094Z,53.05
2018-10-12T18:47:41.157Z,52.25
2018-10-12T18:49:55.020Z,52.49
2018-10-12T18:52:09.230Z,53.07
2018-10-12T18:54:23.099Z,52.48
2018-10-12T18:56:36.502Z,52.74
2018-10-12T18:58:50.418Z,52.80
2018-10-12T19:01:04.505Z,52.73
2018-10-12T19:03:18.425Z,53.74
2018-10-12T19:05:32.564Z,53.42
2018-10-12T19:07:46.589Z,53.61
2018-10-12T19:10:00.564Z,53.70
2018-10-12T19:12:14.681Z,52.96
2018-10-12T19:14:28.670Z,53.44
2018-10-12T19:16:42.846Z,53.77
2018-10-12T19:21:15.980Z,53.81
2018-10-12T19:23:29.792Z,53.43
2018-10-12T19:25:43.959Z,53.14
2018-10-12T19:27:57.841Z,53.18
2018-10-12T19:30:11.788Z,52.97
2018-10-12T19:32:25.675Z,53.08
2018-10-12T19:34:39.585Z,53.33
2018-10-12T19:36:53.547Z,53.48
2018-10-12T19:39:07.529Z,53.94
2018-10-12T19:41:21.371Z,53.83
2018-10-12T19:43:35.206Z,54.15
2018-10-12T19:45:49.246Z,54.38
2018-10-12T19:48:03.171Z,54.33
2018-10-12T19:50:17.061Z,54.55
2018-10-12T19:52:30.926Z,53.99
2018-10-12T19:54:45.019Z,54.67
2018-10-12T19:56:59.037Z,54.49
2018-10-12T19:59:13.055Z,54.27
2018-10-12T20:01:27.172Z,54.48
2018-10-12T20:03:41.213Z,55.05
2018-10-12T20:05:55.454Z,54.57
2018-10-12T20:08:09.560Z,54.30
2018-10-12T20:10:23.796Z,54.83
2018-10-12T20:12:37.645Z,54.76
2018-10-12T20:14:51.509Z,54.59
2018-10-12T20:17:06.193Z,55.09
2018-10-12T20:19:20.453Z,55.44
2018-10-12T20:21:34.588Z,55.29
2018-10-12T20:23:48.772Z,55.69
2018-10-12T20:26:02.516Z,54.98
2018-10-12T20:28:16.486Z,55.00
2018-10-12T20:30:30.506Z,55.90
2018-10-12T20:32:44.603Z,55.26
2018-10-12T20:34:58.312Z,55.60
2018-10-12T20:37:12.331Z,55.53
2018-10-12T20:39:26.423Z,56.27
2018-10-12T20:41:40.364Z,56.37
2018-10-12T20:43:56.017Z,56.25
2018-10-12T20:46:09.417Z,56.54
2018-10-12T20:48:23.460Z,56.33
2018-10-12T20:50:37.360Z,56.37
2018-10-12T20:52:51.426Z,55.78
2018-10-12T20:55:05.571Z,56.62
2018-10-12T20:57:19.509Z,56.48
2018-10-12T20:59:26.459Z,55.79
2018-10-12T21:01:32.796Z,56.41
2018-10-12T21:03:38.976Z,55.90
2018-10-12T21:05:45.423Z,56.69
2018-10-12T21:07:51.604Z,56.22
2018-10-12T21:09:57.830Z,57.09
2018-10-12T21:12:04.048Z,56.57
2018-10-12T21:14:10.273Z,56.97
2018-10-12T21:16:16.536Z,56.82
2018-10-12T21:18:22.738Z,56.84
2018-10-12T21:20:28.933Z,57.21
2018-10-12T21:22:35.202Z,56.52
2018-10-12T21:24:41.371Z,56.42
2018-10-12T21:26:47.666Z,56.88
2018-10-12T21:28:53.942Z,57.20
2018-10-12T21:31:00.104Z,56.66
2018-10-12T21:33:06.229Z,57.05
2018-10-12T21:35:12.524Z,56.54
2018-10-12T21:37:18.793Z,56.65
2018-10-12T21:39:24.950Z,57.34
2018-10-12T21:41:31.161Z,57.74
2018-10-12T21:43:37.359Z,57.57
2018-10-12T21:45:43.789Z,57.93
2018-10-12T21:47:49.925Z,57.38
2018-10-12T21:49:56.229Z,57.47
2018-10-12T21:52:02.466Z,57.90
2018-10-12T21:54:08.605Z,57.91
2018-10-12T21:56:14.765Z,58.26
2018-10-12T21:58:21.037Z,57.47
2018-10-12T22:00:27.274Z,58.43
2018-10-12T22:02:33.391Z,57.53
2018-10-12T22:04:39.684Z,58.23
2018-10-12T22:06:45.867Z,58.40
2018-10-12T22:08:53.275Z,58.28
2018-10-12T22:10:59.360Z,58.34
2018-10-12T22:13:05.597Z,58.59
2018-10-12T22:15:11.715Z,58.07
2018-10-12T22:17:17.966Z,58.60
2018-10-12T22:19:24.074Z,58.41
2018-10-12T22:21:30.262Z,58.30
2018-10-12T22:23:36.405Z,58.24
2018-10-12T22:25:42.601Z,57.40
2018-10-12T22:27:48.706Z,58.32
2018-10-12T22:29:54.957Z,57.64
2018-10-12T22:32:01.172Z,57.68
2018-10-12T22:34:07.710Z,57.91
2018-10-12T22:36:14.088Z,57.75
2018-10-12T22:38:20.340Z,58.60
2018-10-12T22:40:26.505Z,58.40
2018-10-12T22:42:32.623Z,58.45
2018-10-12T22:44:38.692Z,59.09
2018-10-12T22:46:44.924Z,58.84
2018-10-12T22:48:51.018Z,58.67
2018-10-12T22:50:57.125Z,59.08
2018-10-12T22:53:03.296Z,58.21
2018-10-12T22:55:09.064Z,58.68
2018-10-12T22:57:15.156Z,58.39
2018-10-12T22:59:21.327Z,58.91
2018-10-12T23:01:27.464Z,58.22
2018-10-12T23:03:33.588Z,58.95
2018-10-12T23:05:39.811Z,59.05
2018-10-12T23:07:46.219Z,58.39
2018-10-12T23:09:52.359Z,59.17
2018-10-12T23:11:58.531Z,58.80
2018-10-12T23:14:04.748Z,59.28
2018-10-12T23:16:10.903Z,58.45
2018-10-12T23:18:17.015Z,58.74
2018-10-12T23:20:23.135Z,59.49
2018-10-12T23:22:29.596Z,58.60
2018-10-12T23:24:35.882Z,59.42
2018-10-12T23:26:42.012Z,58.49
2018-10-12T23:28:48.140Z,60.01
2018-10-12T23:30:54.231Z,58.92
2018-10-12T23:34:10.423Z,59.56
2018-10-12T23:36:16.472Z,58.92
2018-10-12T23:38:22.875Z,59.63
2018-10-12T23:40:29.009Z,59.62
2018-10-12T23:42:35.145Z,59.93
2018-10-12T23:44:41.271Z,59.37
2018-10-12T23:46:47.376Z,59.60
2018-10-12T23:48:53.511Z,59.50
2018-10-12T23:50:59.623Z,60.15
2018-10-12T23:53:05.768Z,60.09
2018-10-12T23:55:11.866Z,60.23
2018-10-12T23:57:18.141Z,59.79
2018-10-12T23:59:24.362Z,59.80
